createdAt,value
2023-07-18T00:02:36.370Z,101615.75
2023-07-18T00:05:41.028Z,101619.72
2023-07-18T00:08:46.919Z,101621.63
2023-07-18T00:11:49.733Z,101621.09
2023-07-18T00:14:53.376Z,101618.88
2023-07-18T00:17:56.781Z,101613.38
2023-07-18T00:20:59.749Z,101615.66
2023-07-18T00:24:04.078Z,101617.03
2023-07-18T00:27:07.580Z,101612.88
2023-07-18T00:30:13.611Z,101625.38
2023-07-18T00:33:16.429Z,101634.28
2023-07-18T00:36:19.401Z,101632.06
2023-07-18T00:39:24.729Z,101634.28
2023-07-18T00:42:27.594Z,101635.38
2023-07-18T00:45:30.520Z,101629.03
2023-07-18T00:48:34.122Z,101629.84
2023-07-18T00:51:37.161Z,101635.13
2023-07-18T00:54:42.840Z,101639.00
2023-07-18T00:57:48.104Z,101638.47
2023-07-18T01:00:51.162Z,101647.06
2023-07-18T01:03:54.479Z,101632.09
2023-07-18T01:06:57.834Z,101634.59
2023-07-18T01:10:19.926Z,101638.47
2023-07-18T01:13:23.448Z,101637.38
2023-07-18T01:16:27.169Z,101630.16
2023-07-18T01:19:29.967Z,101633.19
2023-07-18T01:22:34.276Z,101641.22
2023-07-18T01:25:38.475Z,101633.72
2023-07-18T01:28:41.358Z,101636.53
2023-07-18T01:31:44.319Z,101637.63
2023-07-18T01:34:47.100Z,101637.06
2023-07-18T01:37:51.635Z,101629.03
2023-07-18T01:40:54.478Z,101630.41
2023-07-18T01:43:58.083Z,101631.19
2023-07-18T01:47:01.030Z,101637.06
2023-07-18T01:50:05.773Z,101640.09
2023-07-18T01:53:12.073Z,101636.72
2023-07-18T01:56:14.930Z,101645.03
2023-07-18T01:59:18.035Z,101640.88
2023-07-18T02:02:20.922Z,101639.25
2023-07-18T02:05:25.399Z,101631.53
2023-07-18T02:08:29.501Z,101640.53
2023-07-18T02:11:32.359Z,101642.75
2023-07-18T02:14:35.095Z,101634.44
2023-07-18T02:17:37.995Z,101643.53
2023-07-18T02:20:41.277Z,101650.97
2023-07-18T02:23:47.975Z,101650.47
2023-07-18T02:26:51.053Z,101656.59
2023-07-18T02:29:53.788Z,101656.56
2023-07-18T02:32:56.798Z,101657.38
2023-07-18T02:35:59.616Z,101670.44
2023-07-18T02:39:07.528Z,101667.34
2023-07-18T02:42:10.457Z,101675.38
2023-07-18T02:45:13.499Z,101677.84
2023-07-18T02:48:16.438Z,101672.00
2023-07-18T02:51:20.617Z,101678.09
2023-07-18T02:54:25.160Z,101678.91
2023-07-18T02:57:28.434Z,101681.41
2023-07-18T03:00:32.533Z,101684.94
2023-07-18T03:03:35.787Z,101678.00
2023-07-18T03:06:38.601Z,101681.34
2023-07-18T03:09:43.290Z,101674.69
2023-07-18T03:12:48.102Z,101670.25
2023-07-18T03:15:50.850Z,101677.66
2023-07-18T03:18:55.405Z,101681.03
2023-07-18T03:21:58.175Z,101692.44
2023-07-18T03:25:08.533Z,101695.16
2023-07-18T03:28:11.522Z,101692.94
2023-07-18T03:31:14.315Z,101689.69
2023-07-18T03:34:17.176Z,101696.06
2023-07-18T03:37:20.026Z,101694.66
2023-07-18T03:40:24.256Z,101696.91
2023-07-18T03:43:27.134Z,101696.91
2023-07-18T03:46:29.918Z,101694.28
2023-07-18T03:49:32.686Z,101696.81
2023-07-18T03:52:35.404Z,101686.28
2023-07-18T03:55:39.831Z,101691.81
2023-07-18T03:58:42.752Z,101699.31
2023-07-18T04:01:45.583Z,101693.28
2023-07-18T04:04:48.509Z,101697.16
2023-07-18T04:07:51.225Z,101698.00
2023-07-18T04:10:55.328Z,101691.75
2023-07-18T04:13:58.150Z,101693.56
2023-07-18T04:17:00.909Z,101694.09
2023-07-18T04:20:06.330Z,101690.28
2023-07-18T04:23:09.533Z,101694.44
2023-07-18T04:26:13.708Z,101701.38
2023-07-18T04:29:16.567Z,101687.22
2023-07-18T04:32:19.820Z,101688.34
2023-07-18T04:35:22.565Z,101683.59
2023-07-18T04:38:25.304Z,101681.88
2023-07-18T04:41:38.185Z,101682.63
2023-07-18T04:44:52.182Z,101687.03
2023-07-18T04:47:54.967Z,101684.78
2023-07-18T04:51:02.844Z,101692.63
2023-07-18T04:54:05.835Z,101691.25
2023-07-18T04:57:09.998Z,101697.69
2023-07-18T05:00:14.283Z,101694.56
2023-07-18T05:03:17.354Z,101700.09
2023-07-18T05:06:20.328Z,101696.91
2023-07-18T05:09:23.061Z,101693.94
2023-07-18T05:12:27.131Z,101699.81
2023-07-18T05:15:30.049Z,101701.13
2023-07-18T05:18:33.068Z,101692.63
2023-07-18T05:21:35.941Z,101711.47
2023-07-18T05:24:39.016Z,101710.88
2023-07-18T05:27:43.665Z,101711.50
2023-07-18T05:30:46.488Z,101707.22
2023-07-18T05:33:50.255Z,101702.34
2023-07-18T05:36:52.992Z,101705.22
2023-07-18T05:39:55.897Z,101709.50
2023-07-18T05:42:59.986Z,101710.09
2023-07-18T05:46:02.841Z,101712.44
2023-07-18T05:49:06.302Z,101708.88
2023-07-18T05:52:09.454Z,101702.59
2023-07-18T05:55:14.956Z,101695.34
2023-07-18T05:58:19.156Z,101692.75
2023-07-18T06:01:22.358Z,101688.41
2023-07-18T06:04:25.484Z,101688.84
2023-07-18T06:07:28.341Z,101690.38
2023-07-18T06:10:31.197Z,101693.66
2023-07-18T06:13:35.638Z,101692.13
2023-07-18T06:16:38.598Z,101695.97
2023-07-18T06:19:41.571Z,101692.09
2023-07-18T06:22:48.226Z,101697.91
2023-07-18T06:25:51.332Z,101709.09
2023-07-18T06:28:55.423Z,101715.56
2023-07-18T06:31:59.205Z,101705.66
2023-07-18T06:35:13.088Z,101705.91
2023-07-18T06:38:24.784Z,101701.31
2023-07-18T06:44:49.719Z,101708.63
2023-07-18T06:47:52.506Z,101707.16
2023-07-18T06:50:57.730Z,101710.94
2023-07-18T06:54:00.476Z,101703.13
2023-07-18T06:57:03.604Z,101712.53
2023-07-18T07:00:12.938Z,101708.38
2023-07-18T07:03:16.134Z,101710.28
2023-07-18T07:06:21.246Z,101703.38
2023-07-18T07:09:25.164Z,101697.66
2023-07-18T07:12:36.186Z,101698.50
2023-07-18T07:15:41.354Z,101707.03
2023-07-18T07:18:44.125Z,101695.88
2023-07-18T07:21:47.473Z,101706.63
2023-07-18T07:24:50.264Z,101706.16
2023-07-18T07:27:53.050Z,101706.28
2023-07-18T07:30:57.413Z,101701.75
2023-07-18T07:34:00.271Z,101703.31
2023-07-18T07:37:03.055Z,101702.25
2023-07-18T07:40:10.282Z,101699.91
2023-07-18T07:43:13.197Z,101701.66
2023-07-18T07:46:18.490Z,101704.50
2023-07-18T07:49:22.759Z,101701.19
2023-07-18T07:52:25.666Z,101697.53
2023-07-18T07:55:28.993Z,101703.78
2023-07-18T07:58:31.881Z,101695.19
2023-07-18T08:01:36.121Z,101693.06
2023-07-18T08:04:39.455Z,101691.75
2023-07-18T08:07:43.984Z,101688.94
2023-07-18T08:10:46.834Z,101699.66
2023-07-18T08:13:49.573Z,101684.47
2023-07-18T08:16:54.394Z,101678.72
2023-07-18T08:19:57.726Z,101677.72
2023-07-18T08:23:00.548Z,101670.69
2023-07-18T08:26:03.291Z,101673.50
2023-07-18T08:29:06.937Z,101677.94
2023-07-18T08:32:11.495Z,101672.31
2023-07-18T08:35:14.548Z,101664.81
2023-07-18T08:38:17.434Z,101663.31
2023-07-18T08:41:21.252Z,101665.84
2023-07-18T08:44:24.658Z,101644.84
2023-07-18T08:47:29.207Z,101642.69
2023-07-18T08:50:33.144Z,101640.66
2023-07-18T08:53:36.537Z,101645.03
2023-07-18T08:56:41.339Z,101640.41
2023-07-18T08:59:45.935Z,101634.16
2023-07-18T09:02:51.098Z,101638.00
2023-07-18T09:05:53.874Z,101633.41
2023-07-18T09:08:57.501Z,101635.00
2023-07-18T09:12:05.158Z,101626.81
2023-07-18T09:15:10.001Z,101638.28
2023-07-18T09:18:17.626Z,101627.75
2023-07-18T09:21:21.112Z,101618.84
2023-07-18T09:24:32.099Z,101616.22
2023-07-18T09:27:37.864Z,101608.97
2023-07-18T09:30:41.039Z,101613.47
2023-07-18T09:33:45.837Z,101607.22
2023-07-18T09:36:57.177Z,101606.72
2023-07-18T09:40:00.561Z,101603.56
2023-07-18T09:43:03.605Z,101610.53
2023-07-18T09:46:08.263Z,101607.91
2023-07-18T09:49:14.801Z,101605.63
2023-07-18T09:52:23.195Z,101597.22
2023-07-18T09:55:28.109Z,101584.13
2023-07-18T09:58:32.422Z,101584.41
2023-07-18T10:01:36.111Z,101586.53
2023-07-18T10:04:40.810Z,101592.41
2023-07-18T10:07:45.122Z,101581.75
2023-07-18T10:11:01.259Z,101582.38
2023-07-18T10:14:14.184Z,101589.94
2023-07-18T10:17:27.780Z,101582.84
2023-07-18T10:20:37.895Z,101582.00
2023-07-18T10:23:42.832Z,101574.56
2023-07-18T10:26:45.590Z,101573.78
2023-07-18T10:30:04.736Z,101567.25
2023-07-18T10:33:09.969Z,101558.47
2023-07-18T10:36:26.794Z,101564.06
2023-07-18T10:39:40.668Z,101561.00
2023-07-18T10:42:45.167Z,101546.78
2023-07-18T10:45:48.734Z,101545.94
2023-07-18T10:48:51.659Z,101543.56
2023-07-18T10:55:18.158Z,101536.34
2023-07-18T10:58:21.967Z,101532.97
2023-07-18T11:01:26.602Z,101529.69
2023-07-18T11:04:30.278Z,101516.09
2023-07-18T11:07:36.202Z,101515.94
2023-07-18T11:10:39.029Z,101512.00
2023-07-18T11:13:44.174Z,101503.50
2023-07-18T11:16:47.222Z,101496.28
2023-07-18T11:19:49.997Z,101493.88
2023-07-18T11:22:54.645Z,101480.44
2023-07-18T11:25:57.438Z,101474.72
2023-07-18T11:29:00.233Z,101476.41
2023-07-18T11:32:03.295Z,101468.13
2023-07-18T11:35:08.678Z,101468.31
2023-07-18T11:38:13.213Z,101478.75
2023-07-18T11:41:16.983Z,101462.41
2023-07-18T11:44:26.520Z,101453.56
2023-07-18T11:47:29.534Z,101450.28
2023-07-18T11:50:32.384Z,101464.19
2023-07-18T11:53:36.665Z,101463.69
2023-07-18T11:56:39.507Z,101463.88
2023-07-18T11:59:42.994Z,101465.22
2023-07-18T12:02:46.576Z,101465.88
2023-07-18T12:05:50.148Z,101460.88
2023-07-18T12:08:54.606Z,101461.72
2023-07-18T12:11:57.550Z,101449.94
2023-07-18T12:15:00.622Z,101444.19
2023-07-18T12:18:03.410Z,101448.84
2023-07-18T12:21:06.345Z,101450.91
2023-07-18T12:24:10.646Z,101446.06
2023-07-18T12:27:13.860Z,101454.59
2023-07-18T12:30:16.792Z,101443.66
2023-07-18T12:33:19.804Z,101441.41
2023-07-18T12:36:22.906Z,101437.25
2023-07-18T12:39:27.835Z,101428.38
2023-07-18T12:42:30.548Z,101433.34
2023-07-18T12:45:34.638Z,101424.88
2023-07-18T12:48:37.414Z,101429.50
2023-07-18T12:51:41.245Z,101424.16
2023-07-18T12:54:45.518Z,101424.16
2023-07-18T12:57:49.377Z,101412.63
2023-07-18T13:00:52.302Z,101423.50
2023-07-18T13:03:55.128Z,101418.19
2023-07-18T13:06:58.142Z,101420.75
2023-07-18T13:10:02.336Z,101415.94
2023-07-18T13:13:05.104Z,101413.38
2023-07-18T13:16:07.891Z,101405.78
2023-07-18T13:19:10.839Z,101407.91
2023-07-18T13:22:13.861Z,101403.75
2023-07-18T13:25:18.207Z,101405.91
2023-07-18T13:28:21.022Z,101398.47
2023-07-18T13:31:24.054Z,101397.63
2023-07-18T13:34:26.981Z,101397.00
2023-07-18T13:37:29.739Z,101397.69
2023-07-18T13:40:33.924Z,101389.25
2023-07-18T13:43:37.121Z,101394.69
2023-07-18T13:46:40.124Z,101390.41
2023-07-18T13:52:48.689Z,101378.91
2023-07-18T13:55:53.018Z,101385.28
2023-07-18T13:58:55.821Z,101372.84
2023-07-18T14:01:58.729Z,101367.56
2023-07-18T14:05:01.610Z,101358.59
2023-07-18T14:08:04.908Z,101364.25
2023-07-18T14:11:09.197Z,101355.81
2023-07-18T14:14:11.943Z,101344.41
2023-07-18T14:17:14.837Z,101337.88
2023-07-18T14:20:18.063Z,101341.81
2023-07-18T14:23:20.786Z,101328.69
2023-07-18T14:26:25.034Z,101318.81
2023-07-18T14:29:27.737Z,101322.16
2023-07-18T14:32:30.784Z,101326.66
2023-07-18T14:35:33.578Z,101313.81
2023-07-18T14:38:36.324Z,101308.94
2023-07-18T14:41:40.456Z,101289.09
2023-07-18T14:44:43.187Z,101294.00
2023-07-18T14:47:46.011Z,101288.00
2023-07-18T14:50:48.984Z,101289.25
2023-07-18T14:53:51.770Z,101290.44
2023-07-18T14:56:56.018Z,101285.53
2023-07-18T14:59:58.707Z,101280.22
2023-07-18T15:03:01.819Z,101277.78
2023-07-18T15:06:06.054Z,101266.31
2023-07-18T15:09:08.842Z,101270.88
2023-07-18T15:12:13.026Z,101277.06
2023-07-18T15:15:16.704Z,101268.69
2023-07-18T15:18:19.528Z,101265.84
2023-07-18T15:21:22.628Z,101251.69
2023-07-18T15:24:25.565Z,101262.94
2023-07-18T15:27:29.816Z,101268.38
2023-07-18T15:30:32.559Z,101267.75
2023-07-18T15:33:37.696Z,101259.72
2023-07-18T15:36:40.768Z,101258.88
2023-07-18T15:39:43.539Z,101249.97
2023-07-18T15:42:47.812Z,101255.63
2023-07-18T15:45:50.798Z,101250.09
2023-07-18T15:48:53.814Z,101256.06
2023-07-18T15:51:57.118Z,101255.38
2023-07-18T15:54:59.868Z,101244.38
2023-07-18T15:58:04.140Z,101239.75
2023-07-18T16:01:06.979Z,101238.75
2023-07-18T16:04:10.496Z,101240.09
2023-07-18T16:07:13.455Z,101242.91
2023-07-18T16:10:16.238Z,101245.63
2023-07-18T16:13:20.505Z,101251.69
2023-07-18T16:16:25.238Z,101250.06
2023-07-18T16:19:28.082Z,101245.56
2023-07-18T16:22:30.877Z,101227.16
2023-07-18T16:25:33.778Z,101222.78
2023-07-18T16:28:38.949Z,101221.84
2023-07-18T16:31:41.862Z,101226.03
2023-07-18T16:34:44.751Z,101236.25
2023-07-18T16:37:47.495Z,101229.00
2023-07-18T16:40:50.265Z,101232.63
2023-07-18T16:43:54.389Z,101221.03
2023-07-18T16:46:57.156Z,101215.84
2023-07-18T16:50:00.069Z,101214.41
2023-07-18T16:53:02.833Z,101203.19
2023-07-18T16:56:06.055Z,101185.69
2023-07-18T16:59:10.285Z,101200.56
2023-07-18T17:02:13.089Z,101191.09
2023-07-18T17:05:16.151Z,101183.94
2023-07-18T17:08:18.956Z,101185.91
2023-07-18T17:11:21.893Z,101177.94
2023-07-18T17:14:26.156Z,101184.75
2023-07-18T17:17:28.883Z,101174.31
2023-07-18T17:20:31.818Z,101172.78
2023-07-18T17:23:34.586Z,101156.84
2023-07-18T17:26:38.250Z,101154.97
2023-07-18T17:29:42.561Z,101146.53
2023-07-18T17:32:45.358Z,101145.84
2023-07-18T17:35:48.270Z,101144.78
2023-07-18T17:38:51.019Z,101144.16
2023-07-18T17:41:53.904Z,101136.31
2023-07-18T17:44:58.400Z,101134.84
2023-07-18T17:48:01.225Z,101135.91
2023-07-18T17:51:04.284Z,101134.22
2023-07-18T17:54:07.069Z,101119.94
2023-07-18T17:57:09.960Z,101124.22
2023-07-18T18:00:15.143Z,101122.81
2023-07-18T18:03:17.923Z,101112.34
2023-07-18T18:06:21.254Z,101116.53
2023-07-18T18:09:24.230Z,101112.88
2023-07-18T18:12:26.940Z,101113.63
2023-07-18T18:15:31.342Z,101119.69
2023-07-18T18:18:34.119Z,101109.06
2023-07-18T18:21:36.979Z,101109.72
2023-07-18T18:24:39.700Z,101105.84
2023-07-18T18:27:42.543Z,101107.00
2023-07-18T18:30:46.895Z,101097.53
2023-07-18T18:33:49.601Z,101090.94
2023-07-18T18:36:52.461Z,101088.38
2023-07-18T18:39:55.523Z,101088.56
2023-07-18T18:42:58.409Z,101092.50
2023-07-18T18:46:02.993Z,101081.34
2023-07-18T18:49:09.860Z,101077.28
2023-07-18T18:52:12.852Z,101075.63
2023-07-18T18:55:20.438Z,101080.28
2023-07-18T18:58:23.935Z,101080.28
2023-07-18T19:01:28.214Z,101083.59
2023-07-18T19:04:31.226Z,101085.84
2023-07-18T19:07:34.179Z,101080.75
2023-07-18T19:10:38.306Z,101089.78
2023-07-18T19:13:42.674Z,101091.72
2023-07-18T19:16:46.967Z,101083.97
2023-07-18T19:19:49.893Z,101084.91
2023-07-18T19:22:53.730Z,101095.06
2023-07-18T19:25:56.721Z,101088.16
2023-07-18T19:28:59.740Z,101098.53
2023-07-18T19:32:04.000Z,101100.41
2023-07-18T19:35:07.549Z,101103.91
2023-07-18T19:38:10.489Z,101098.41
2023-07-18T19:41:13.281Z,101107.25
2023-07-18T19:44:16.182Z,101103.31
2023-07-18T19:47:20.352Z,101114.03
2023-07-18T19:50:23.216Z,101110.34
2023-07-18T19:53:27.583Z,101110.44
2023-07-18T19:56:33.097Z,101106.28
2023-07-18T19:59:35.985Z,101102.34
2023-07-18T20:02:41.852Z,101108.31
2023-07-18T20:05:44.695Z,101111.91
2023-07-18T20:08:47.555Z,101100.53
2023-07-18T20:11:50.327Z,101104.38
2023-07-18T20:14:53.768Z,101098.75
2023-07-18T20:17:57.897Z,101096.47
2023-07-18T20:21:00.907Z,101089.56
2023-07-18T20:24:03.825Z,101093.25
2023-07-18T20:27:07.623Z,101101.09
2023-07-18T20:30:11.360Z,101094.22
2023-07-18T20:33:15.445Z,101097.31
2023-07-18T20:36:18.463Z,101102.34
2023-07-18T20:39:21.363Z,101098.75
2023-07-18T20:42:24.124Z,101098.81
2023-07-18T20:45:27.643Z,101105.91
2023-07-18T20:48:34.343Z,101103.41
2023-07-18T20:51:37.278Z,101106.75
2023-07-18T20:54:40.160Z,101107.75
2023-07-18T20:57:43.341Z,101101.66
2023-07-18T21:00:46.367Z,101099.72
2023-07-18T21:03:50.722Z,101095.06
2023-07-18T21:06:53.425Z,101094.84
2023-07-18T21:09:56.315Z,101097.41
2023-07-18T21:12:59.230Z,101100.47
2023-07-18T21:16:02.049Z,101093.13
2023-07-18T21:19:06.389Z,101089.53
2023-07-18T21:22:09.337Z,101090.28
2023-07-18T21:25:12.917Z,101091.63
2023-07-18T21:28:15.841Z,101090.19
2023-07-18T21:31:18.945Z,101097.09
2023-07-18T21:34:23.761Z,101102.69
2023-07-18T21:37:26.706Z,101099.25
2023-07-18T21:40:29.715Z,101097.81
2023-07-18T21:43:32.480Z,101091.53
2023-07-18T21:46:35.516Z,101091.13
2023-07-18T21:49:39.756Z,101090.66
2023-07-18T21:52:44.594Z,101097.00
2023-07-18T21:55:47.941Z,101094.59
2023-07-18T21:58:50.653Z,101095.34
2023-07-18T22:01:53.993Z,101100.34
2023-07-18T22:04:58.113Z,101089.84
2023-07-18T22:08:01.004Z,101091.19
2023-07-18T22:11:03.891Z,101088.22
2023-07-18T22:14:06.597Z,101083.91
2023-07-18T22:17:09.726Z,101083.03
2023-07-18T22:20:14.750Z,101077.78
2023-07-18T22:23:17.613Z,101075.22
2023-07-18T22:26:20.372Z,101076.69
2023-07-18T22:29:23.219Z,101075.44
2023-07-18T22:32:26.014Z,101073.47
2023-07-18T22:35:30.240Z,101075.97
2023-07-18T22:38:32.974Z,101068.16
2023-07-18T22:41:35.837Z,101060.91
2023-07-18T22:44:38.686Z,101068.03
2023-07-18T22:47:41.461Z,101057.25
2023-07-18T22:50:45.733Z,101060.09
2023-07-18T22:53:48.474Z,101053.13
2023-07-18T22:56:51.355Z,101061.25
2023-07-18T22:59:54.280Z,101051.50
2023-07-18T23:02:57.109Z,101044.63
2023-07-18T23:06:01.922Z,101048.09
2023-07-18T23:09:04.895Z,101058.88
2023-07-18T23:12:09.323Z,101042.59
2023-07-18T23:15:12.805Z,101039.25
2023-07-18T23:18:15.771Z,101035.28
2023-07-18T23:21:20.331Z,101036.47
2023-07-18T23:24:23.255Z,101031.63
2023-07-18T23:27:26.109Z,101035.59
2023-07-18T23:30:28.880Z,101034.75
2023-07-18T23:33:31.765Z,101034.16
2023-07-18T23:36:36.020Z,101028.16
2023-07-18T23:39:39.383Z,101019.56
2023-07-18T23:42:42.262Z,101019.28
2023-07-18T23:45:44.976Z,101015.09
2023-07-18T23:48:47.872Z,101019.56
2023-07-18T23:51:52.803Z,101015.69
2023-07-18T23:54:55.761Z,101007.38
2023-07-18T23:57:58.520Z,101009.44
